sensor_id;sensor_type;location;lat;lon;timestamp;temperature;humidity
22925;DHT22;11628;51.072;3.712;2022-07-10T00:00:29;17.80;99.90
22925;DHT22;11628;51.072;3.712;2022-07-10T00:02:56;17.70;99.90
22925;DHT22;11628;51.072;3.712;2022-07-10T00:05:23;17.70;99.90
22925;DHT22;11628;51.072;3.712;2022-07-10T00:07:49;17.70;99.90
22925;DHT22;11628;51.072;3.712;2022-07-10T00:10:15;17.60;99.90
22925;DHT22;11628;51.072;3.712;2022-07-10T00:12:42;17.60;99.90
22925;DHT22;11628;51.072;3.712;2022-07-10T00:15:08;17.50;99.90
22925;DHT22;11628;51.072;3.712;2022-07-10T00:17:35;17.40;99.90
22925;DHT22;11628;51.072;3.712;2022-07-10T00:20:02;17.40;99.90
22925;DHT22;11628;51.072;3.712;2022-07-10T00:22:28;17.40;99.90
22925;DHT22;11628;51.072;3.712;2022-07-10T00:24:54;17.40;99.90
22925;DHT22;11628;51.072;3.712;2022-07-10T00:27:22;17.30;99.90
22925;DHT22;11628;51.072;3.712;2022-07-10T00:29:48;17.30;99.90
22925;DHT22;11628;51.072;3.712;2022-07-10T00:32:14;17.20;99.90
22925;DHT22;11628;51.072;3.712;2022-07-10T00:34:40;17.20;99.90
22925;DHT22;11628;51.072;3.712;2022-07-10T00:37:06;17.20;99.90
22925;DHT22;11628;51.072;3.712;2022-07-10T00:39:31;17.10;99.90
22925;DHT22;11628;51.072;3.712;2022-07-10T00:42:11;17.00;99.90
22925;DHT22;11628;51.072;3.712;2022-07-10T00:44:42;16.90;99.90
22925;DHT22;11628;51.072;3.712;2022-07-10T00:47:10;16.90;99.90
22925;DHT22;11628;51.072;3.712;2022-07-10T00:49:37;16.80;99.90
22925;DHT22;11628;51.072;3.712;2022-07-10T00:52:13;16.70;99.90
22925;DHT22;11628;51.072;3.712;2022-07-10T00:54:43;16.70;99.90
22925;DHT22;11628;51.072;3.712;2022-07-10T00:57:10;16.70;99.90
22925;DHT22;11628;51.072;3.712;2022-07-10T00:59:37;16.70;99.90
22925;DHT22;11628;51.072;3.712;2022-07-10T01:02:04;16.70;99.90
22925;DHT22;11628;51.072;3.712;2022-07-10T01:04:31;16.70;99.90
22925;DHT22;11628;51.072;3.712;2022-07-10T01:06:58;16.80;99.90
22925;DHT22;11628;51.072;3.712;2022-07-10T01:09:23;16.90;99.90
22925;DHT22;11628;51.072;3.712;2022-07-10T01:11:50;17.00;99.90
22925;DHT22;11628;51.072;3.712;2022-07-10T01:14:15;16.90;99.90
22925;DHT22;11628;51.072;3.712;2022-07-10T01:16:41;16.90;99.90
22925;DHT22;11628;51.072;3.712;2022-07-10T01:19:07;16.90;99.90
22925;DHT22;11628;51.072;3.712;2022-07-10T01:21:35;16.90;99.90
22925;DHT22;11628;51.072;3.712;2022-07-10T01:24:06;17.00;99.90
22925;DHT22;11628;51.072;3.712;2022-07-10T01:26:32;17.00;99.90
22925;DHT22;11628;51.072;3.712;2022-07-10T01:28:58;16.90;99.90
22925;DHT22;11628;51.072;3.712;2022-07-10T01:31:27;16.90;99.90
22925;DHT22;11628;51.072;3.712;2022-07-10T01:33:54;16.90;99.90
22925;DHT22;11628;51.072;3.712;2022-07-10T01:36:23;16.90;99.90
22925;DHT22;11628;51.072;3.712;2022-07-10T01:38:53;16.80;99.90
22925;DHT22;11628;51.072;3.712;2022-07-10T01:41:19;16.80;99.90
22925;DHT22;11628;51.072;3.712;2022-07-10T01:43:45;16.70;99.90
22925;DHT22;11628;51.072;3.712;2022-07-10T01:46:12;16.70;99.90
22925;DHT22;11628;51.072;3.712;2022-07-10T01:48:38;16.70;99.90
22925;DHT22;11628;51.072;3.712;2022-07-10T01:51:05;16.70;99.90
22925;DHT22;11628;51.072;3.712;2022-07-10T01:53:30;16.70;99.90
22925;DHT22;11628;51.072;3.712;2022-07-10T01:55:56;16.60;99.90
22925;DHT22;11628;51.072;3.712;2022-07-10T01:58:22;16.60;99.90
22925;DHT22;11628;51.072;3.712;2022-07-10T02:00:48;16.50;99.90
22925;DHT22;11628;51.072;3.712;2022-07-10T02:03:13;16.50;99.90
22925;DHT22;11628;51.072;3.712;2022-07-10T02:05:58;16.50;99.90
22925;DHT22;11628;51.072;3.712;2022-07-10T02:08:23;16.40;99.90
22925;DHT22;11628;51.072;3.712;2022-07-10T02:10:49;16.40;99.90
22925;DHT22;11628;51.072;3.712;2022-07-10T02:13:15;16.30;99.90
22925;DHT22;11628;51.072;3.712;2022-07-10T02:15:43;16.40;99.90
22925;DHT22;11628;51.072;3.712;2022-07-10T02:18:09;16.40;99.90
22925;DHT22;11628;51.072;3.712;2022-07-10T02:20:35;16.30;99.90
22925;DHT22;11628;51.072;3.712;2022-07-10T02:23:02;16.30;99.90
22925;DHT22;11628;51.072;3.712;2022-07-10T02:25:28;16.30;99.90
22925;DHT22;11628;51.072;3.712;2022-07-10T02:27:54;16.20;99.90
22925;DHT22;11628;51.072;3.712;2022-07-10T02:30:20;16.20;99.90
22925;DHT22;11628;51.072;3.712;2022-07-10T02:32:45;16.20;99.90
22925;DHT22;11628;51.072;3.712;2022-07-10T02:35:11;16.20;99.90
22925;DHT22;11628;51.072;3.712;2022-07-10T02:37:37;16.10;99.90
22925;DHT22;11628;51.072;3.712;2022-07-10T02:40:03;16.00;99.90
22925;DHT22;11628;51.072;3.712;2022-07-10T02:42:28;16.00;99.90
22925;DHT22;11628;51.072;3.712;2022-07-10T02:44:54;15.90;99.90
22925;DHT22;11628;51.072;3.712;2022-07-10T02:47:20;15.90;99.90
22925;DHT22;11628;51.072;3.712;2022-07-10T02:49:46;16.00;99.90
22925;DHT22;11628;51.072;3.712;2022-07-10T02:52:11;16.00;99.90
22925;DHT22;11628;51.072;3.712;2022-07-10T02:54:37;16.00;99.90
22925;DHT22;11628;51.072;3.712;2022-07-10T02:57:04;16.00;99.90
22925;DHT22;11628;51.072;3.712;2022-07-10T02:59:30;16.00;99.90
22925;DHT22;11628;51.072;3.712;2022-07-10T03:01:55;16.00;99.90
22925;DHT22;11628;51.072;3.712;2022-07-10T03:04:21;15.90;99.90
22925;DHT22;11628;51.072;3.712;2022-07-10T03:06:47;15.90;99.90
22925;DHT22;11628;51.072;3.712;2022-07-10T03:09:13;15.90;99.90
22925;DHT22;11628;51.072;3.712;2022-07-10T03:11:39;15.90;99.90
22925;DHT22;11628;51.072;3.712;2022-07-10T03:14:04;15.80;99.90
22925;DHT22;11628;51.072;3.712;2022-07-10T03:16:31;15.80;99.90
22925;DHT22;11628;51.072;3.712;2022-07-10T03:18:57;15.80;99.90
22925;DHT22;11628;51.072;3.712;2022-07-10T03:21:23;15.80;99.90
22925;DHT22;11628;51.072;3.712;2022-07-10T03:23:49;15.80;99.90
22925;DHT22;11628;51.072;3.712;2022-07-10T03:26:15;15.80;99.90
22925;DHT22;11628;51.072;3.712;2022-07-10T03:28:41;15.80;99.90
22925;DHT22;11628;51.072;3.712;2022-07-10T03:31:07;15.80;99.90
22925;DHT22;11628;51.072;3.712;2022-07-10T03:33:33;15.70;99.90
22925;DHT22;11628;51.072;3.712;2022-07-10T03:35:59;15.70;99.90
22925;DHT22;11628;51.072;3.712;2022-07-10T03:38:27;15.70;99.90
22925;DHT22;11628;51.072;3.712;2022-07-10T03:40:53;15.60;99.90
22925;DHT22;11628;51.072;3.712;2022-07-10T03:43:18;15.50;99.90
22925;DHT22;11628;51.072;3.712;2022-07-10T03:45:44;15.50;99.90
22925;DHT22;11628;51.072;3.712;2022-07-10T03:48:10;15.60;99.90
22925;DHT22;11628;51.072;3.712;2022-07-10T03:50:36;15.50;99.90
22925;DHT22;11628;51.072;3.712;2022-07-10T03:53:02;15.50;99.90
22925;DHT22;11628;51.072;3.712;2022-07-10T03:55:28;15.50;99.90
22925;DHT22;11628;51.072;3.712;2022-07-10T03:57:53;15.50;99.90
22925;DHT22;11628;51.072;3.712;2022-07-10T04:00:24;15.40;99.90
22925;DHT22;11628;51.072;3.712;2022-07-10T04:02:57;15.60;99.90
22925;DHT22;11628;51.072;3.712;2022-07-10T04:05:23;15.60;99.90
22925;DHT22;11628;51.072;3.712;2022-07-10T04:07:49;15.60;99.90
22925;DHT22;11628;51.072;3.712;2022-07-10T04:10:15;15.60;99.90
22925;DHT22;11628;51.072;3.712;2022-07-10T04:12:41;15.60;99.90
22925;DHT22;11628;51.072;3.712;2022-07-10T04:15:07;15.60;99.90
22925;DHT22;11628;51.072;3.712;2022-07-10T04:17:33;15.60;99.90
22925;DHT22;11628;51.072;3.712;2022-07-10T04:19:59;15.60;99.90
22925;DHT22;11628;51.072;3.712;2022-07-10T04:22:26;15.60;99.90
22925;DHT22;11628;51.072;3.712;2022-07-10T04:24:53;15.60;99.90
22925;DHT22;11628;51.072;3.712;2022-07-10T04:27:19;15.70;99.90
22925;DHT22;11628;51.072;3.712;2022-07-10T04:29:45;15.70;99.90
22925;DHT22;11628;51.072;3.712;2022-07-10T04:32:10;15.80;99.90
22925;DHT22;11628;51.072;3.712;2022-07-10T04:34:37;15.90;99.90
22925;DHT22;11628;51.072;3.712;2022-07-10T04:37:03;16.00;99.90
22925;DHT22;11628;51.072;3.712;2022-07-10T04:39:28;16.00;99.90
22925;DHT22;11628;51.072;3.712;2022-07-10T04:41:54;16.10;99.90
22925;DHT22;11628;51.072;3.712;2022-07-10T04:44:20;16.20;99.90
22925;DHT22;11628;51.072;3.712;2022-07-10T04:46:46;16.20;99.90
22925;DHT22;11628;51.072;3.712;2022-07-10T04:49:12;16.20;99.90
22925;DHT22;11628;51.072;3.712;2022-07-10T04:51:38;16.20;99.90
22925;DHT22;11628;51.072;3.712;2022-07-10T04:54:04;16.30;99.90
22925;DHT22;11628;51.072;3.712;2022-07-10T04:56:29;16.40;99.90
22925;DHT22;11628;51.072;3.712;2022-07-10T04:58:55;16.50;99.90
22925;DHT22;11628;51.072;3.712;2022-07-10T05:01:21;16.50;99.90
22925;DHT22;11628;51.072;3.712;2022-07-10T05:03:47;16.60;99.90
22925;DHT22;11628;51.072;3.712;2022-07-10T05:06:13;16.70;99.90
22925;DHT22;11628;51.072;3.712;2022-07-10T05:08:39;16.80;99.90
22925;DHT22;11628;51.072;3.712;2022-07-10T05:11:05;16.90;99.90
22925;DHT22;11628;51.072;3.712;2022-07-10T05:13:31;17.00;99.90
22925;DHT22;11628;51.072;3.712;2022-07-10T05:15:56;17.10;99.90
22925;DHT22;11628;51.072;3.712;2022-07-10T05:18:22;17.20;99.90
22925;DHT22;11628;51.072;3.712;2022-07-10T05:20:48;17.30;99.90
22925;DHT22;11628;51.072;3.712;2022-07-10T05:23:15;17.40;99.90
22925;DHT22;11628;51.072;3.712;2022-07-10T05:25:41;17.50;99.90
22925;DHT22;11628;51.072;3.712;2022-07-10T05:28:07;17.50;99.90
22925;DHT22;11628;51.072;3.712;2022-07-10T05:30:33;17.60;99.90
22925;DHT22;11628;51.072;3.712;2022-07-10T05:32:59;17.70;99.90
22925;DHT22;11628;51.072;3.712;2022-07-10T05:35:25;17.80;99.90
22925;DHT22;11628;51.072;3.712;2022-07-10T05:37:52;17.90;99.90
22925;DHT22;11628;51.072;3.712;2022-07-10T05:40:18;17.90;99.90
22925;DHT22;11628;51.072;3.712;2022-07-10T05:42:44;18.00;99.90
22925;DHT22;11628;51.072;3.712;2022-07-10T05:45:11;18.00;99.90
22925;DHT22;11628;51.072;3.712;2022-07-10T05:47:37;18.10;99.90
22925;DHT22;11628;51.072;3.712;2022-07-10T05:50:03;18.20;99.90
22925;DHT22;11628;51.072;3.712;2022-07-10T05:52:29;18.30;99.90
22925;DHT22;11628;51.072;3.712;2022-07-10T05:54:58;18.40;99.90
22925;DHT22;11628;51.072;3.712;2022-07-10T05:57:24;18.60;99.90
22925;DHT22;11628;51.072;3.712;2022-07-10T05:59:50;18.70;99.90
22925;DHT22;11628;51.072;3.712;2022-07-10T06:02:16;18.80;99.90
22925;DHT22;11628;51.072;3.712;2022-07-10T06:04:42;18.80;99.90
22925;DHT22;11628;51.072;3.712;2022-07-10T06:07:08;18.90;99.90
22925;DHT22;11628;51.072;3.712;2022-07-10T06:09:34;19.00;99.90
22925;DHT22;11628;51.072;3.712;2022-07-10T06:12:00;19.10;99.90
22925;DHT22;11628;51.072;3.712;2022-07-10T06:14:26;19.20;99.90
22925;DHT22;11628;51.072;3.712;2022-07-10T06:16:51;19.30;99.90
22925;DHT22;11628;51.072;3.712;2022-07-10T06:19:17;19.30;99.90
22925;DHT22;11628;51.072;3.712;2022-07-10T06:21:44;19.40;99.90
22925;DHT22;11628;51.072;3.712;2022-07-10T06:24:10;19.50;99.90
22925;DHT22;11628;51.072;3.712;2022-07-10T06:26:36;19.40;99.90
22925;DHT22;11628;51.072;3.712;2022-07-10T06:29:02;19.50;99.90
22925;DHT22;11628;51.072;3.712;2022-07-10T06:31:27;19.70;99.90
22925;DHT22;11628;51.072;3.712;2022-07-10T06:33:54;19.80;99.90
22925;DHT22;11628;51.072;3.712;2022-07-10T06:36:20;19.90;99.90
22925;DHT22;11628;51.072;3.712;2022-07-10T06:38:46;20.00;99.90
22925;DHT22;11628;51.072;3.712;2022-07-10T06:41:11;20.00;99.90
22925;DHT22;11628;51.072;3.712;2022-07-10T06:43:37;20.10;99.90
22925;DHT22;11628;51.072;3.712;2022-07-10T06:46:03;20.00;99.90
22925;DHT22;11628;51.072;3.712;2022-07-10T06:48:29;20.00;99.90
22925;DHT22;11628;51.072;3.712;2022-07-10T06:50:55;20.20;99.90
22925;DHT22;11628;51.072;3.712;2022-07-10T06:53:21;20.40;99.90
22925;DHT22;11628;51.072;3.712;2022-07-10T06:55:53;20.40;99.90
22925;DHT22;11628;51.072;3.712;2022-07-10T06:58:19;20.40;99.90
22925;DHT22;11628;51.072;3.712;2022-07-10T07:00:44;20.60;99.90
22925;DHT22;11628;51.072;3.712;2022-07-10T07:03:10;20.70;99.90
22925;DHT22;11628;51.072;3.712;2022-07-10T07:05:36;20.80;99.90
22925;DHT22;11628;51.072;3.712;2022-07-10T07:08:03;20.90;99.90
22925;DHT22;11628;51.072;3.712;2022-07-10T07:10:30;20.90;99.90
22925;DHT22;11628;51.072;3.712;2022-07-10T07:12:55;20.90;99.90
22925;DHT22;11628;51.072;3.712;2022-07-10T07:15:21;20.80;99.90
22925;DHT22;11628;51.072;3.712;2022-07-10T07:17:49;21.10;99.90
22925;DHT22;11628;51.072;3.712;2022-07-10T07:20:34;21.10;99.90
22925;DHT22;11628;51.072;3.712;2022-07-10T07:23:20;21.20;99.90
22925;DHT22;11628;51.072;3.712;2022-07-10T07:25:47;21.10;99.90
22925;DHT22;11628;51.072;3.712;2022-07-10T07:28:16;21.20;99.90
22925;DHT22;11628;51.072;3.712;2022-07-10T07:30:44;21.30;99.90
22925;DHT22;11628;51.072;3.712;2022-07-10T07:33:10;21.40;99.90
22925;DHT22;11628;51.072;3.712;2022-07-10T07:35:36;21.30;99.90
22925;DHT22;11628;51.072;3.712;2022-07-10T07:38:02;21.40;99.90
22925;DHT22;11628;51.072;3.712;2022-07-10T07:40:28;21.50;99.90
22925;DHT22;11628;51.072;3.712;2022-07-10T07:42:55;21.60;99.90
22925;DHT22;11628;51.072;3.712;2022-07-10T07:45:24;21.70;99.90
22925;DHT22;11628;51.072;3.712;2022-07-10T07:47:55;21.60;99.90
22925;DHT22;11628;51.072;3.712;2022-07-10T07:50:33;21.60;99.90
22925;DHT22;11628;51.072;3.712;2022-07-10T07:53:02;21.40;99.90
22925;DHT22;11628;51.072;3.712;2022-07-10T07:55:29;21.60;99.90
22925;DHT22;11628;51.072;3.712;2022-07-10T07:57:56;21.80;99.90
22925;DHT22;11628;51.072;3.712;2022-07-10T08:00:24;21.80;99.90
22925;DHT22;11628;51.072;3.712;2022-07-10T08:02:51;22.10;99.90
22925;DHT22;11628;51.072;3.712;2022-07-10T08:05:18;22.40;99.90
22925;DHT22;11628;51.072;3.712;2022-07-10T08:07:46;22.50;99.90
22925;DHT22;11628;51.072;3.712;2022-07-10T08:10:14;22.60;99.90
22925;DHT22;11628;51.072;3.712;2022-07-10T08:12:41;22.70;99.90
22925;DHT22;11628;51.072;3.712;2022-07-10T08:15:10;22.90;99.90
22925;DHT22;11628;51.072;3.712;2022-07-10T08:17:36;23.30;99.90
22925;DHT22;11628;51.072;3.712;2022-07-10T08:20:03;23.80;99.90
22925;DHT22;11628;51.072;3.712;2022-07-10T08:22:29;24.50;99.90
22925;DHT22;11628;51.072;3.712;2022-07-10T08:24:55;25.10;97.80
22925;DHT22;11628;51.072;3.712;2022-07-10T08:27:22;25.40;96.80
22925;DHT22;11628;51.072;3.712;2022-07-10T08:29:48;25.70;95.80
22925;DHT22;11628;51.072;3.712;2022-07-10T08:32:14;26.20;94.60
22925;DHT22;11628;51.072;3.712;2022-07-10T08:34:40;26.60;93.60
22925;DHT22;11628;51.072;3.712;2022-07-10T08:37:05;26.60;93.40
22925;DHT22;11628;51.072;3.712;2022-07-10T08:39:31;27.10;92.40
22925;DHT22;11628;51.072;3.712;2022-07-10T08:41:58;27.30;91.80
22925;DHT22;11628;51.072;3.712;2022-07-10T08:44:25;27.80;90.70
22925;DHT22;11628;51.072;3.712;2022-07-10T08:46:50;28.30;89.30
22925;DHT22;11628;51.072;3.712;2022-07-10T08:49:17;28.70;87.40
22925;DHT22;11628;51.072;3.712;2022-07-10T08:54:43;29.30;84.90
22925;DHT22;11628;51.072;3.712;2022-07-10T08:57:10;29.70;82.60
22925;DHT22;11628;51.072;3.712;2022-07-10T08:59:36;30.10;80.90
22925;DHT22;11628;51.072;3.712;2022-07-10T09:02:02;30.30;80.30
22925;DHT22;11628;51.072;3.712;2022-07-10T09:04:28;30.50;79.80
22925;DHT22;11628;51.072;3.712;2022-07-10T09:06:54;30.40;79.10
22925;DHT22;11628;51.072;3.712;2022-07-10T09:09:21;30.60;78.70
22925;DHT22;11628;51.072;3.712;2022-07-10T09:11:47;30.60;77.70
22925;DHT22;11628;51.072;3.712;2022-07-10T09:14:17;30.80;77.40
22925;DHT22;11628;51.072;3.712;2022-07-10T09:16:44;31.20;76.80
22925;DHT22;11628;51.072;3.712;2022-07-10T09:19:24;31.60;75.80
22925;DHT22;11628;51.072;3.712;2022-07-10T09:21:52;32.20;73.80
22925;DHT22;11628;51.072;3.712;2022-07-10T09:24:18;32.40;73.50
22925;DHT22;11628;51.072;3.712;2022-07-10T09:26:58;32.60;72.70
22925;DHT22;11628;51.072;3.712;2022-07-10T09:29:31;33.20;72.60
22925;DHT22;11628;51.072;3.712;2022-07-10T09:31:59;33.40;71.20
22925;DHT22;11628;51.072;3.712;2022-07-10T09:34:44;33.80;68.70
22925;DHT22;11628;51.072;3.712;2022-07-10T09:42:30;33.10;69.40
22925;DHT22;11628;51.072;3.712;2022-07-10T09:47:55;33.50;68.70
22925;DHT22;11628;51.072;3.712;2022-07-10T09:53:03;34.80;65.00
22925;DHT22;11628;51.072;3.712;2022-07-10T09:55:31;35.40;64.70
22925;DHT22;11628;51.072;3.712;2022-07-10T09:57:59;35.90;63.30
22925;DHT22;11628;51.072;3.712;2022-07-10T10:00:30;36.10;62.80
22925;DHT22;11628;51.072;3.712;2022-07-10T10:02:59;36.60;61.80
22925;DHT22;11628;51.072;3.712;2022-07-10T10:05:48;36.40;61.10
22925;DHT22;11628;51.072;3.712;2022-07-10T10:08:28;36.20;62.10
22925;DHT22;11628;51.072;3.712;2022-07-10T10:10:56;36.40;62.20
22925;DHT22;11628;51.072;3.712;2022-07-10T10:13:24;37.10;60.80
22925;DHT22;11628;51.072;3.712;2022-07-10T10:15:52;37.90;60.30
22925;DHT22;11628;51.072;3.712;2022-07-10T10:18:28;38.40;59.00
22925;DHT22;11628;51.072;3.712;2022-07-10T10:20:56;38.50;57.90
22925;DHT22;11628;51.072;3.712;2022-07-10T10:23:23;37.70;58.10
22925;DHT22;11628;51.072;3.712;2022-07-10T10:25:52;37.50;58.30
22925;DHT22;11628;51.072;3.712;2022-07-10T10:28:20;37.20;58.70
22925;DHT22;11628;51.072;3.712;2022-07-10T10:30:55;38.20;57.80
22925;DHT22;11628;51.072;3.712;2022-07-10T10:36:01;41.50;53.60
22925;DHT22;11628;51.072;3.712;2022-07-10T10:41:23;41.80;53.20
22925;DHT22;11628;51.072;3.712;2022-07-10T10:44:34;41.60;53.00
22925;DHT22;11628;51.072;3.712;2022-07-10T10:46:54;40.50;54.00
22925;DHT22;11628;51.072;3.712;2022-07-10T10:49:26;39.70;54.30
22925;DHT22;11628;51.072;3.712;2022-07-10T10:52:00;40.70;52.40
22925;DHT22;11628;51.072;3.712;2022-07-10T10:54:28;41.40;51.80
22925;DHT22;11628;51.072;3.712;2022-07-10T10:57:11;41.00;52.20
22925;DHT22;11628;51.072;3.712;2022-07-10T10:59:54;40.40;52.90
22925;DHT22;11628;51.072;3.712;2022-07-10T11:04:51;39.40;53.70
22925;DHT22;11628;51.072;3.712;2022-07-10T11:13:00;38.70;54.70
22925;DHT22;11628;51.072;3.712;2022-07-10T11:15:29;38.40;54.80
22925;DHT22;11628;51.072;3.712;2022-07-10T11:18:06;38.80;54.90
22925;DHT22;11628;51.072;3.712;2022-07-10T11:20:36;39.50;53.40
22925;DHT22;11628;51.072;3.712;2022-07-10T11:23:12;40.20;52.80
22925;DHT22;11628;51.072;3.712;2022-07-10T11:25:49;40.50;52.60
22925;DHT22;11628;51.072;3.712;2022-07-10T11:28:54;41.60;51.70
22925;DHT22;11628;51.072;3.712;2022-07-10T11:31:22;41.60;51.20
22925;DHT22;11628;51.072;3.712;2022-07-10T11:33:49;42.20;50.70
22925;DHT22;11628;51.072;3.712;2022-07-10T11:36:24;42.90;50.00
22925;DHT22;11628;51.072;3.712;2022-07-10T11:39:07;43.90;49.50
22925;DHT22;11628;51.072;3.712;2022-07-10T11:41:34;44.90;48.50
22925;DHT22;11628;51.072;3.712;2022-07-10T11:44:12;45.20;47.50
22925;DHT22;11628;51.072;3.712;2022-07-10T11:46:38;45.50;46.90
22925;DHT22;11628;51.072;3.712;2022-07-10T11:49:05;45.40;46.70
22925;DHT22;11628;51.072;3.712;2022-07-10T11:51:33;46.60;45.90
22925;DHT22;11628;51.072;3.712;2022-07-10T11:54:03;47.70;44.80
22925;DHT22;11628;51.072;3.712;2022-07-10T11:56:31;49.00;43.70
22925;DHT22;11628;51.072;3.712;2022-07-10T11:59:07;49.30;43.20
22925;DHT22;11628;51.072;3.712;2022-07-10T12:01:42;49.70;42.50
22925;DHT22;11628;51.072;3.712;2022-07-10T12:04:09;49.80;42.10
22925;DHT22;11628;51.072;3.712;2022-07-10T12:06:37;49.50;42.20
22925;DHT22;11628;51.072;3.712;2022-07-10T12:09:05;50.10;41.90
22925;DHT22;11628;51.072;3.712;2022-07-10T12:11:31;51.40;41.10
22925;DHT22;11628;51.072;3.712;2022-07-10T12:14:17;52.30;40.10
22925;DHT22;11628;51.072;3.712;2022-07-10T12:16:48;53.00;39.20
22925;DHT22;11628;51.072;3.712;2022-07-10T12:19:16;51.60;39.80
22925;DHT22;11628;51.072;3.712;2022-07-10T12:21:43;49.60;40.80
22925;DHT22;11628;51.072;3.712;2022-07-10T12:24:10;48.90;41.40
22925;DHT22;11628;51.072;3.712;2022-07-10T12:26:39;49.00;41.30
22925;DHT22;11628;51.072;3.712;2022-07-10T12:29:18;49.60;40.80
22925;DHT22;11628;51.072;3.712;2022-07-10T12:31:45;48.80;41.00
22925;DHT22;11628;51.072;3.712;2022-07-10T12:34:12;47.80;41.80
22925;DHT22;11628;51.072;3.712;2022-07-10T12:36:52;47.40;43.10
22925;DHT22;11628;51.072;3.712;2022-07-10T12:39:21;48.60;41.60
22925;DHT22;11628;51.072;3.712;2022-07-10T12:42:00;49.40;40.60
22925;DHT22;11628;51.072;3.712;2022-07-10T12:47:10;50.10;39.90
22925;DHT22;11628;51.072;3.712;2022-07-10T12:52:26;49.70;40.40
22925;DHT22;11628;51.072;3.712;2022-07-10T13:00:19;48.80;40.50
22925;DHT22;11628;51.072;3.712;2022-07-10T13:02:46;49.20;40.40
22925;DHT22;11628;51.072;3.712;2022-07-10T13:05:27;49.50;40.10
22925;DHT22;11628;51.072;3.712;2022-07-10T13:08:04;49.70;39.90
22925;DHT22;11628;51.072;3.712;2022-07-10T13:10:32;49.60;39.80
22925;DHT22;11628;51.072;3.712;2022-07-10T13:12:58;49.20;40.10
22925;DHT22;11628;51.072;3.712;2022-07-10T13:15:24;49.70;39.30
22925;DHT22;11628;51.072;3.712;2022-07-10T13:17:49;49.50;39.80
22925;DHT22;11628;51.072;3.712;2022-07-10T13:20:16;49.50;39.60
22925;DHT22;11628;51.072;3.712;2022-07-10T13:22:41;49.40;39.60
22925;DHT22;11628;51.072;3.712;2022-07-10T13:25:08;49.30;39.50
22925;DHT22;11628;51.072;3.712;2022-07-10T13:27:34;49.40;39.60
22925;DHT22;11628;51.072;3.712;2022-07-10T13:30:05;49.50;39.40
22925;DHT22;11628;51.072;3.712;2022-07-10T13:32:31;49.30;39.70
22925;DHT22;11628;51.072;3.712;2022-07-10T13:34:57;48.40;40.30
22925;DHT22;11628;51.072;3.712;2022-07-10T13:37:22;48.10;40.60
22925;DHT22;11628;51.072;3.712;2022-07-10T13:39:48;47.90;40.90
22925;DHT22;11628;51.072;3.712;2022-07-10T13:42:14;48.10;40.60
22925;DHT22;11628;51.072;3.712;2022-07-10T13:44:40;48.70;39.70
22925;DHT22;11628;51.072;3.712;2022-07-10T13:47:06;49.00;39.60
22925;DHT22;11628;51.072;3.712;2022-07-10T13:49:31;49.10;40.10
22925;DHT22;11628;51.072;3.712;2022-07-10T13:51:57;48.90;39.70
22925;DHT22;11628;51.072;3.712;2022-07-10T13:54:23;48.20;40.00
22925;DHT22;11628;51.072;3.712;2022-07-10T13:56:49;48.30;40.20
22925;DHT22;11628;51.072;3.712;2022-07-10T13:59:14;48.40;40.10
22925;DHT22;11628;51.072;3.712;2022-07-10T14:01:40;47.70;40.30
22925;DHT22;11628;51.072;3.712;2022-07-10T14:04:06;46.80;41.20
22925;DHT22;11628;51.072;3.712;2022-07-10T14:06:32;46.30;41.30
22925;DHT22;11628;51.072;3.712;2022-07-10T14:08:58;46.00;41.30
22925;DHT22;11628;51.072;3.712;2022-07-10T14:11:24;46.20;41.20
22925;DHT22;11628;51.072;3.712;2022-07-10T14:13:49;46.00;41.30
22925;DHT22;11628;51.072;3.712;2022-07-10T14:16:15;45.70;41.70
22925;DHT22;11628;51.072;3.712;2022-07-10T14:18:41;45.40;42.00
22925;DHT22;11628;51.072;3.712;2022-07-10T14:21:11;44.70;42.20
22925;DHT22;11628;51.072;3.712;2022-07-10T14:23:40;44.90;42.10
22925;DHT22;11628;51.072;3.712;2022-07-10T14:26:10;45.20;41.80
22925;DHT22;11628;51.072;3.712;2022-07-10T14:28:36;45.30;42.00
22925;DHT22;11628;51.072;3.712;2022-07-10T14:31:03;45.40;41.70
22925;DHT22;11628;51.072;3.712;2022-07-10T14:33:32;45.60;41.60
22925;DHT22;11628;51.072;3.712;2022-07-10T14:35:59;45.60;41.40
22925;DHT22;11628;51.072;3.712;2022-07-10T14:38:25;45.00;42.10
22925;DHT22;11628;51.072;3.712;2022-07-10T14:40:51;45.00;41.60
22925;DHT22;11628;51.072;3.712;2022-07-10T14:43:19;44.80;42.00
22925;DHT22;11628;51.072;3.712;2022-07-10T14:45:45;45.20;41.50
22925;DHT22;11628;51.072;3.712;2022-07-10T14:48:11;45.10;41.30
22925;DHT22;11628;51.072;3.712;2022-07-10T14:50:38;44.90;41.70
22925;DHT22;11628;51.072;3.712;2022-07-10T14:53:05;44.80;41.80
22925;DHT22;11628;51.072;3.712;2022-07-10T14:55:31;44.90;42.30
22925;DHT22;11628;51.072;3.712;2022-07-10T14:57:57;44.90;41.60
22925;DHT22;11628;51.072;3.712;2022-07-10T15:00:22;44.70;41.80
22925;DHT22;11628;51.072;3.712;2022-07-10T15:02:48;44.30;42.00
22925;DHT22;11628;51.072;3.712;2022-07-10T15:05:14;44.10;42.20
22925;DHT22;11628;51.072;3.712;2022-07-10T15:07:40;43.80;42.50
22925;DHT22;11628;51.072;3.712;2022-07-10T15:10:06;43.80;42.50
22925;DHT22;11628;51.072;3.712;2022-07-10T15:12:34;44.00;42.40
22925;DHT22;11628;51.072;3.712;2022-07-10T15:15:03;44.00;41.90
22925;DHT22;11628;51.072;3.712;2022-07-10T15:17:29;43.80;42.20
22925;DHT22;11628;51.072;3.712;2022-07-10T15:19:54;43.40;42.60
22925;DHT22;11628;51.072;3.712;2022-07-10T15:22:20;43.00;43.10
22925;DHT22;11628;51.072;3.712;2022-07-10T15:24:46;42.60;43.30
22925;DHT22;11628;51.072;3.712;2022-07-10T15:27:14;42.30;43.50
22925;DHT22;11628;51.072;3.712;2022-07-10T15:29:41;42.00;43.90
22925;DHT22;11628;51.072;3.712;2022-07-10T15:32:07;41.60;44.10
22925;DHT22;11628;51.072;3.712;2022-07-10T15:34:33;41.40;44.10
22925;DHT22;11628;51.072;3.712;2022-07-10T15:36:58;41.20;44.20
22925;DHT22;11628;51.072;3.712;2022-07-10T15:39:24;41.30;44.10
22925;DHT22;11628;51.072;3.712;2022-07-10T15:41:50;41.30;44.10
22925;DHT22;11628;51.072;3.712;2022-07-10T15:44:16;41.30;43.90
22925;DHT22;11628;51.072;3.712;2022-07-10T15:46:42;41.00;44.50
22925;DHT22;11628;51.072;3.712;2022-07-10T15:49:07;40.40;45.20
22925;DHT22;11628;51.072;3.712;2022-07-10T15:51:35;40.00;45.60
22925;DHT22;11628;51.072;3.712;2022-07-10T15:54:01;39.50;46.90
22925;DHT22;11628;51.072;3.712;2022-07-10T15:56:26;39.70;46.10
22925;DHT22;11628;51.072;3.712;2022-07-10T15:58:52;39.70;45.90
22925;DHT22;11628;51.072;3.712;2022-07-10T16:01:17;39.90;45.70
22925;DHT22;11628;51.072;3.712;2022-07-10T16:03:43;39.80;45.80
22925;DHT22;11628;51.072;3.712;2022-07-10T16:06:14;39.60;46.00
22925;DHT22;11628;51.072;3.712;2022-07-10T16:08:40;39.60;46.00
22925;DHT22;11628;51.072;3.712;2022-07-10T16:11:06;39.30;46.50